sensor_id;sensor_type;location;lat;lon;timestamp;temperature;humidity
22966;DHT22;11649;48.090;9.754;2023-07-20T00:02:04;20.40;65.10
22966;DHT22;11649;48.090;9.754;2023-07-20T00:04:32;20.40;66.50
22966;DHT22;11649;48.090;9.754;2023-07-20T00:06:59;20.40;65.30
22966;DHT22;11649;48.090;9.754;2023-07-20T00:09:27;20.40;64.90
22966;DHT22;11649;48.090;9.754;2023-07-20T00:11:54;20.50;62.10
22966;DHT22;11649;48.090;9.754;2023-07-20T00:14:21;20.50;62.10
22966;DHT22;11649;48.090;9.754;2023-07-20T00:16:50;20.50;62.50
22966;DHT22;11649;48.090;9.754;2023-07-20T00:19:26;20.50;61.80
22966;DHT22;11649;48.090;9.754;2023-07-20T00:21:54;20.40;63.20
22966;DHT22;11649;48.090;9.754;2023-07-20T00:24:21;20.30;65.60
22966;DHT22;11649;48.090;9.754;2023-07-20T00:26:48;20.30;64.70
22966;DHT22;11649;48.090;9.754;2023-07-20T00:29:15;20.30;64.30
22966;DHT22;11649;48.090;9.754;2023-07-20T00:31:42;20.20;65.60
22966;DHT22;11649;48.090;9.754;2023-07-20T00:34:10;20.30;66.60
22966;DHT22;11649;48.090;9.754;2023-07-20T00:36:37;20.30;64.40
22966;DHT22;11649;48.090;9.754;2023-07-20T00:39:04;20.30;64.60
22966;DHT22;11649;48.090;9.754;2023-07-20T00:41:31;20.30;63.70
22966;DHT22;11649;48.090;9.754;2023-07-20T00:43:59;20.30;62.90
22966;DHT22;11649;48.090;9.754;2023-07-20T00:46:26;20.20;63.90
22966;DHT22;11649;48.090;9.754;2023-07-20T00:48:53;20.10;66.10
22966;DHT22;11649;48.090;9.754;2023-07-20T00:51:21;20.00;68.70
22966;DHT22;11649;48.090;9.754;2023-07-20T00:53:49;19.90;69.30
22966;DHT22;11649;48.090;9.754;2023-07-20T00:56:17;19.80;70.70
22966;DHT22;11649;48.090;9.754;2023-07-20T00:58:44;19.80;70.80
22966;DHT22;11649;48.090;9.754;2023-07-20T01:01:12;19.70;72.50
22966;DHT22;11649;48.090;9.754;2023-07-20T01:03:39;19.50;76.90
22966;DHT22;11649;48.090;9.754;2023-07-20T01:06:12;19.60;73.90
22966;DHT22;11649;48.090;9.754;2023-07-20T01:08:57;19.50;77.40
22966;DHT22;11649;48.090;9.754;2023-07-20T01:11:30;19.60;76.70
22966;DHT22;11649;48.090;9.754;2023-07-20T01:13:59;19.60;75.10
22966;DHT22;11649;48.090;9.754;2023-07-20T01:16:27;19.70;75.50
22966;DHT22;11649;48.090;9.754;2023-07-20T01:18:54;19.70;75.50
22966;DHT22;11649;48.090;9.754;2023-07-20T01:21:27;19.70;75.00
22966;DHT22;11649;48.090;9.754;2023-07-20T01:32:18;19.80;70.70
22966;DHT22;11649;48.090;9.754;2023-07-20T01:34:47;19.80;69.50
22966;DHT22;11649;48.090;9.754;2023-07-20T01:37:15;19.60;71.90
22966;DHT22;11649;48.090;9.754;2023-07-20T01:39:44;19.60;72.60
22966;DHT22;11649;48.090;9.754;2023-07-20T01:42:11;19.50;74.50
22966;DHT22;11649;48.090;9.754;2023-07-20T01:44:38;19.50;75.20
22966;DHT22;11649;48.090;9.754;2023-07-20T01:47:05;19.40;78.90
22966;DHT22;11649;48.090;9.754;2023-07-20T01:49:32;19.30;77.50
22966;DHT22;11649;48.090;9.754;2023-07-20T01:51:59;19.30;74.40
22966;DHT22;11649;48.090;9.754;2023-07-20T01:54:25;19.40;71.50
22966;DHT22;11649;48.090;9.754;2023-07-20T01:56:52;19.40;74.60
22966;DHT22;11649;48.090;9.754;2023-07-20T01:59:19;19.40;75.90
22966;DHT22;11649;48.090;9.754;2023-07-20T02:01:46;19.50;73.40
22966;DHT22;11649;48.090;9.754;2023-07-20T02:04:12;19.50;74.60
22966;DHT22;11649;48.090;9.754;2023-07-20T02:06:39;19.40;75.10
22966;DHT22;11649;48.090;9.754;2023-07-20T02:09:06;19.50;71.80
22966;DHT22;11649;48.090;9.754;2023-07-20T02:11:33;19.50;70.40
22966;DHT22;11649;48.090;9.754;2023-07-20T02:14:00;19.60;68.30
22966;DHT22;11649;48.090;9.754;2023-07-20T02:16:26;19.50;69.40
22966;DHT22;11649;48.090;9.754;2023-07-20T02:18:53;19.50;68.70
22966;DHT22;11649;48.090;9.754;2023-07-20T02:21:23;19.50;70.10
22966;DHT22;11649;48.090;9.754;2023-07-20T02:23:50;19.50;66.10
22966;DHT22;11649;48.090;9.754;2023-07-20T02:26:17;19.60;65.90
22966;DHT22;11649;48.090;9.754;2023-07-20T02:28:43;19.60;65.40
22966;DHT22;11649;48.090;9.754;2023-07-20T02:31:10;19.50;66.10
22966;DHT22;11649;48.090;9.754;2023-07-20T02:33:37;19.60;65.70
22966;DHT22;11649;48.090;9.754;2023-07-20T02:36:04;19.40;68.40
22966;DHT22;11649;48.090;9.754;2023-07-20T02:38:31;19.40;66.40
22966;DHT22;11649;48.090;9.754;2023-07-20T02:40:57;19.30;68.90
22966;DHT22;11649;48.090;9.754;2023-07-20T02:43:24;19.40;67.40
22966;DHT22;11649;48.090;9.754;2023-07-20T02:45:52;19.40;66.00
22966;DHT22;11649;48.090;9.754;2023-07-20T02:48:19;19.30;66.00
22966;DHT22;11649;48.090;9.754;2023-07-20T02:50:46;19.30;66.80
22966;DHT22;11649;48.090;9.754;2023-07-20T02:53:13;19.20;67.30
22966;DHT22;11649;48.090;9.754;2023-07-20T02:55:39;19.30;67.90
22966;DHT22;11649;48.090;9.754;2023-07-20T02:58:06;19.20;67.90
22966;DHT22;11649;48.090;9.754;2023-07-20T03:00:33;19.20;66.50
22966;DHT22;11649;48.090;9.754;2023-07-20T03:03:00;19.10;68.70
22966;DHT22;11649;48.090;9.754;2023-07-20T03:05:27;19.10;67.90
22966;DHT22;11649;48.090;9.754;2023-07-20T03:07:55;19.10;66.10
22966;DHT22;11649;48.090;9.754;2023-07-20T03:10:22;19.10;66.40
22966;DHT22;11649;48.090;9.754;2023-07-20T03:12:49;19.00;67.40
22966;DHT22;11649;48.090;9.754;2023-07-20T03:15:16;19.00;66.00
22966;DHT22;11649;48.090;9.754;2023-07-20T03:17:42;18.90;67.70
22966;DHT22;11649;48.090;9.754;2023-07-20T03:20:10;18.90;67.80
22966;DHT22;11649;48.090;9.754;2023-07-20T03:22:39;18.80;69.50
22966;DHT22;11649;48.090;9.754;2023-07-20T03:25:06;18.80;69.50
22966;DHT22;11649;48.090;9.754;2023-07-20T03:27:33;18.80;70.30
22966;DHT22;11649;48.090;9.754;2023-07-20T03:29:59;18.70;71.90
22966;DHT22;11649;48.090;9.754;2023-07-20T03:32:26;18.70;74.20
22966;DHT22;11649;48.090;9.754;2023-07-20T03:34:53;18.60;71.60
22966;DHT22;11649;48.090;9.754;2023-07-20T03:37:20;18.50;73.70
22966;DHT22;11649;48.090;9.754;2023-07-20T03:39:48;18.40;75.00
22966;DHT22;11649;48.090;9.754;2023-07-20T03:42:15;18.50;73.80
22966;DHT22;11649;48.090;9.754;2023-07-20T03:44:42;18.40;73.90
22966;DHT22;11649;48.090;9.754;2023-07-20T03:47:08;18.40;74.00
22966;DHT22;11649;48.090;9.754;2023-07-20T03:49:35;18.30;76.90
22966;DHT22;11649;48.090;9.754;2023-07-20T03:52:02;18.20;79.70
22966;DHT22;11649;48.090;9.754;2023-07-20T03:54:32;18.30;79.80
22966;DHT22;11649;48.090;9.754;2023-07-20T03:56:59;18.30;77.80
22966;DHT22;11649;48.090;9.754;2023-07-20T03:59:27;18.30;79.50
22966;DHT22;11649;48.090;9.754;2023-07-20T04:01:54;18.20;77.50
22966;DHT22;11649;48.090;9.754;2023-07-20T04:04:20;18.30;77.00
22966;DHT22;11649;48.090;9.754;2023-07-20T04:06:47;18.30;76.70
22966;DHT22;11649;48.090;9.754;2023-07-20T04:09:14;18.20;76.30
22966;DHT22;11649;48.090;9.754;2023-07-20T04:11:41;18.20;76.30
22966;DHT22;11649;48.090;9.754;2023-07-20T04:14:08;18.20;76.50
22966;DHT22;11649;48.090;9.754;2023-07-20T04:16:34;18.10;81.00
22966;DHT22;11649;48.090;9.754;2023-07-20T04:19:01;18.10;80.20
22966;DHT22;11649;48.090;9.754;2023-07-20T04:21:28;18.10;82.00
22966;DHT22;11649;48.090;9.754;2023-07-20T04:23:55;18.00;78.40
22966;DHT22;11649;48.090;9.754;2023-07-20T04:26:22;18.00;79.40
22966;DHT22;11649;48.090;9.754;2023-07-20T04:28:49;18.10;82.60
22966;DHT22;11649;48.090;9.754;2023-07-20T04:31:17;18.10;82.70
22966;DHT22;11649;48.090;9.754;2023-07-20T04:33:44;18.20;84.90
22966;DHT22;11649;48.090;9.754;2023-07-20T04:36:10;18.10;84.80
22966;DHT22;11649;48.090;9.754;2023-07-20T04:38:37;18.20;93.20
22966;DHT22;11649;48.090;9.754;2023-07-20T04:41:04;18.10;94.00
22966;DHT22;11649;48.090;9.754;2023-07-20T04:43:31;18.10;94.50
22966;DHT22;11649;48.090;9.754;2023-07-20T04:45:57;17.90;92.10
22966;DHT22;11649;48.090;9.754;2023-07-20T04:48:25;17.70;92.90
22966;DHT22;11649;48.090;9.754;2023-07-20T04:50:52;17.80;94.00
22966;DHT22;11649;48.090;9.754;2023-07-20T04:53:18;18.20;99.90
22966;DHT22;11649;48.090;9.754;2023-07-20T04:55:49;18.00;98.70
22966;DHT22;11649;48.090;9.754;2023-07-20T04:58:21;18.00;98.30
22966;DHT22;11649;48.090;9.754;2023-07-20T05:00:49;18.10;92.20
22966;DHT22;11649;48.090;9.754;2023-07-20T05:03:16;18.20;90.10
22966;DHT22;11649;48.090;9.754;2023-07-20T05:05:43;18.20;89.30
22966;DHT22;11649;48.090;9.754;2023-07-20T05:08:13;18.30;88.80
22966;DHT22;11649;48.090;9.754;2023-07-20T05:10:40;18.40;87.20
22966;DHT22;11649;48.090;9.754;2023-07-20T05:13:07;18.20;93.00
22966;DHT22;11649;48.090;9.754;2023-07-20T05:15:34;18.10;93.40
22966;DHT22;11649;48.090;9.754;2023-07-20T05:18:01;18.10;88.50
22966;DHT22;11649;48.090;9.754;2023-07-20T05:20:28;18.30;82.30
22966;DHT22;11649;48.090;9.754;2023-07-20T05:22:55;18.50;81.30
22966;DHT22;11649;48.090;9.754;2023-07-20T05:25:21;18.50;81.60
22966;DHT22;11649;48.090;9.754;2023-07-20T05:27:49;18.40;85.40
22966;DHT22;11649;48.090;9.754;2023-07-20T05:30:17;18.50;87.10
22966;DHT22;11649;48.090;9.754;2023-07-20T05:32:44;18.60;83.10
22966;DHT22;11649;48.090;9.754;2023-07-20T05:35:14;18.50;83.80
22966;DHT22;11649;48.090;9.754;2023-07-20T05:37:43;18.60;82.00
22966;DHT22;11649;48.090;9.754;2023-07-20T05:40:19;18.50;90.40
22966;DHT22;11649;48.090;9.754;2023-07-20T05:42:48;18.30;85.40
22966;DHT22;11649;48.090;9.754;2023-07-20T05:45:15;18.30;89.00
22966;DHT22;11649;48.090;9.754;2023-07-20T05:47:42;18.40;87.00
22966;DHT22;11649;48.090;9.754;2023-07-20T05:50:10;18.50;79.90
22966;DHT22;11649;48.090;9.754;2023-07-20T05:52:37;18.60;76.10
22966;DHT22;11649;48.090;9.754;2023-07-20T05:55:06;18.70;80.10
22966;DHT22;11649;48.090;9.754;2023-07-20T05:57:33;18.70;77.50
22966;DHT22;11649;48.090;9.754;2023-07-20T06:00:00;18.80;78.80
22966;DHT22;11649;48.090;9.754;2023-07-20T06:02:27;18.80;75.10
22966;DHT22;11649;48.090;9.754;2023-07-20T06:04:54;18.90;73.10
22966;DHT22;11649;48.090;9.754;2023-07-20T06:07:21;18.90;74.40
22966;DHT22;11649;48.090;9.754;2023-07-20T06:09:48;19.60;77.10
22966;DHT22;11649;48.090;9.754;2023-07-20T06:12:14;19.10;71.50
22966;DHT22;11649;48.090;9.754;2023-07-20T06:14:41;19.20;69.50
22966;DHT22;11649;48.090;9.754;2023-07-20T06:17:08;19.20;75.20
22966;DHT22;11649;48.090;9.754;2023-07-20T06:19:37;19.20;73.50
22966;DHT22;11649;48.090;9.754;2023-07-20T06:22:04;19.20;71.10
22966;DHT22;11649;48.090;9.754;2023-07-20T06:24:31;19.30;75.80
22966;DHT22;11649;48.090;9.754;2023-07-20T06:26:58;19.20;73.80
22966;DHT22;11649;48.090;9.754;2023-07-20T06:29:25;19.30;70.40
22966;DHT22;11649;48.090;9.754;2023-07-20T06:31:55;19.30;71.60
22966;DHT22;11649;48.090;9.754;2023-07-20T06:34:22;19.30;70.20
22966;DHT22;11649;48.090;9.754;2023-07-20T06:36:50;19.30;73.00
22966;DHT22;11649;48.090;9.754;2023-07-20T06:39:16;19.30;71.50
22966;DHT22;11649;48.090;9.754;2023-07-20T06:41:46;19.30;70.20
22966;DHT22;11649;48.090;9.754;2023-07-20T06:44:13;19.30;71.10
22966;DHT22;11649;48.090;9.754;2023-07-20T06:46:40;19.30;69.50
22966;DHT22;11649;48.090;9.754;2023-07-20T06:49:07;19.30;69.50
22966;DHT22;11649;48.090;9.754;2023-07-20T06:51:37;19.30;67.80
22966;DHT22;11649;48.090;9.754;2023-07-20T06:54:04;19.50;67.30
22966;DHT22;11649;48.090;9.754;2023-07-20T06:56:31;19.40;67.60
22966;DHT22;11649;48.090;9.754;2023-07-20T06:58:59;19.40;68.20
22966;DHT22;11649;48.090;9.754;2023-07-20T07:01:26;19.30;69.30
22966;DHT22;11649;48.090;9.754;2023-07-20T07:03:53;19.50;66.40
22966;DHT22;11649;48.090;9.754;2023-07-20T07:06:22;19.40;67.10
22966;DHT22;11649;48.090;9.754;2023-07-20T07:08:50;19.50;68.80
22966;DHT22;11649;48.090;9.754;2023-07-20T07:11:17;19.50;66.60
22966;DHT22;11649;48.090;9.754;2023-07-20T07:13:44;19.40;69.10
22966;DHT22;11649;48.090;9.754;2023-07-20T07:16:13;19.40;66.70
22966;DHT22;11649;48.090;9.754;2023-07-20T07:18:46;19.50;66.10
22966;DHT22;11649;48.090;9.754;2023-07-20T07:21:13;19.60;67.00
22966;DHT22;11649;48.090;9.754;2023-07-20T07:23:40;19.80;67.50
22966;DHT22;11649;48.090;9.754;2023-07-20T07:26:06;19.80;66.10
22966;DHT22;11649;48.090;9.754;2023-07-20T07:28:42;19.80;63.30
22966;DHT22;11649;48.090;9.754;2023-07-20T07:31:09;19.60;63.50
22966;DHT22;11649;48.090;9.754;2023-07-20T07:33:36;19.60;63.80
22966;DHT22;11649;48.090;9.754;2023-07-20T07:36:03;19.50;63.80
22966;DHT22;11649;48.090;9.754;2023-07-20T07:38:30;19.40;66.50
22966;DHT22;11649;48.090;9.754;2023-07-20T07:41:20;19.40;65.70
22966;DHT22;11649;48.090;9.754;2023-07-20T07:43:47;19.50;65.90
22966;DHT22;11649;48.090;9.754;2023-07-20T07:46:14;19.70;65.90
22966;DHT22;11649;48.090;9.754;2023-07-20T07:48:41;19.70;65.80
22966;DHT22;11649;48.090;9.754;2023-07-20T07:51:08;19.90;64.60
22966;DHT22;11649;48.090;9.754;2023-07-20T07:53:35;20.00;67.10
22966;DHT22;11649;48.090;9.754;2023-07-20T07:56:04;20.10;66.40
22966;DHT22;11649;48.090;9.754;2023-07-20T07:59:15;20.10;63.00
22966;DHT22;11649;48.090;9.754;2023-07-20T08:01:45;20.30;65.00
22966;DHT22;11649;48.090;9.754;2023-07-20T08:04:12;20.30;63.30
22966;DHT22;11649;48.090;9.754;2023-07-20T08:06:39;20.30;62.60
22966;DHT22;11649;48.090;9.754;2023-07-20T08:09:06;20.40;60.40
22966;DHT22;11649;48.090;9.754;2023-07-20T08:11:35;20.40;65.20
22966;DHT22;11649;48.090;9.754;2023-07-20T08:14:02;20.40;62.90
22966;DHT22;11649;48.090;9.754;2023-07-20T08:16:29;20.40;61.90
22966;DHT22;11649;48.090;9.754;2023-07-20T08:18:56;20.50;61.30
22966;DHT22;11649;48.090;9.754;2023-07-20T08:21:23;20.40;58.70
22966;DHT22;11649;48.090;9.754;2023-07-20T08:23:50;20.40;59.00
22966;DHT22;11649;48.090;9.754;2023-07-20T08:26:16;20.40;58.80
22966;DHT22;11649;48.090;9.754;2023-07-20T08:28:44;20.40;59.60
22966;DHT22;11649;48.090;9.754;2023-07-20T08:31:12;20.50;58.20
22966;DHT22;11649;48.090;9.754;2023-07-20T08:33:38;20.40;61.40
22966;DHT22;11649;48.090;9.754;2023-07-20T08:36:06;20.50;59.20
22966;DHT22;11649;48.090;9.754;2023-07-20T08:38:37;20.50;56.90
22966;DHT22;11649;48.090;9.754;2023-07-20T08:41:04;20.60;55.90
22966;DHT22;11649;48.090;9.754;2023-07-20T08:43:31;20.50;55.30
22966;DHT22;11649;48.090;9.754;2023-07-20T08:46:00;20.50;54.10
22966;DHT22;11649;48.090;9.754;2023-07-20T08:48:32;20.50;58.90
22966;DHT22;11649;48.090;9.754;2023-07-20T08:51:01;20.60;60.20
22966;DHT22;11649;48.090;9.754;2023-07-20T08:53:29;20.80;56.60
22966;DHT22;11649;48.090;9.754;2023-07-20T08:55:58;20.90;56.20
22966;DHT22;11649;48.090;9.754;2023-07-20T08:58:27;20.90;57.00
22966;DHT22;11649;48.090;9.754;2023-07-20T09:00:55;21.10;59.80
22966;DHT22;11649;48.090;9.754;2023-07-20T09:03:22;21.10;57.20
22966;DHT22;11649;48.090;9.754;2023-07-20T09:05:49;21.00;56.90
22966;DHT22;11649;48.090;9.754;2023-07-20T09:08:16;21.00;57.60
22966;DHT22;11649;48.090;9.754;2023-07-20T09:10:43;21.10;56.20
22966;DHT22;11649;48.090;9.754;2023-07-20T09:13:14;21.20;58.70
22966;DHT22;11649;48.090;9.754;2023-07-20T09:15:46;21.40;55.20
22966;DHT22;11649;48.090;9.754;2023-07-20T09:18:30;21.40;55.70
22966;DHT22;11649;48.090;9.754;2023-07-20T09:21:17;21.40;55.20
22966;DHT22;11649;48.090;9.754;2023-07-20T09:23:44;21.30;56.80
22966;DHT22;11649;48.090;9.754;2023-07-20T09:26:12;21.30;56.30
22966;DHT22;11649;48.090;9.754;2023-07-20T09:28:52;21.30;56.20
22966;DHT22;11649;48.090;9.754;2023-07-20T09:31:39;21.20;55.80
22966;DHT22;11649;48.090;9.754;2023-07-20T09:34:09;21.00;56.50
22966;DHT22;11649;48.090;9.754;2023-07-20T09:36:37;21.00;60.00
22966;DHT22;11649;48.090;9.754;2023-07-20T09:39:07;21.10;57.80
22966;DHT22;11649;48.090;9.754;2023-07-20T09:41:41;21.30;57.60
22966;DHT22;11649;48.090;9.754;2023-07-20T09:44:15;21.30;57.70
22966;DHT22;11649;48.090;9.754;2023-07-20T09:46:49;21.30;56.70
22966;DHT22;11649;48.090;9.754;2023-07-20T09:49:20;21.50;59.80
22966;DHT22;11649;48.090;9.754;2023-07-20T09:51:50;21.60;55.80
22966;DHT22;11649;48.090;9.754;2023-07-20T09:54:18;21.60;57.10
22966;DHT22;11649;48.090;9.754;2023-07-20T09:56:46;21.90;56.60
22966;DHT22;11649;48.090;9.754;2023-07-20T09:59:15;22.30;55.20
22966;DHT22;11649;48.090;9.754;2023-07-20T10:01:43;22.60;51.70
22966;DHT22;11649;48.090;9.754;2023-07-20T10:04:11;22.60;54.90
22966;DHT22;11649;48.090;9.754;2023-07-20T10:06:42;22.80;54.60
22966;DHT22;11649;48.090;9.754;2023-07-20T10:09:12;22.90;52.60
22966;DHT22;11649;48.090;9.754;2023-07-20T10:11:45;22.70;52.60
22966;DHT22;11649;48.090;9.754;2023-07-20T10:14:41;22.60;53.50
22966;DHT22;11649;48.090;9.754;2023-07-20T10:17:14;22.40;55.50
22966;DHT22;11649;48.090;9.754;2023-07-20T10:20:24;22.50;54.20
22966;DHT22;11649;48.090;9.754;2023-07-20T10:23:14;22.50;51.90
22966;DHT22;11649;48.090;9.754;2023-07-20T10:26:18;22.50;54.60
22966;DHT22;11649;48.090;9.754;2023-07-20T10:29:02;22.40;56.20
22966;DHT22;11649;48.090;9.754;2023-07-20T10:32:12;22.30;54.70
22966;DHT22;11649;48.090;9.754;2023-07-20T10:38:15;22.50;55.40
22966;DHT22;11649;48.090;9.754;2023-07-20T10:41:16;22.90;54.20
22966;DHT22;11649;48.090;9.754;2023-07-20T10:44:14;23.10;54.50
22966;DHT22;11649;48.090;9.754;2023-07-20T10:47:32;23.20;53.70
22966;DHT22;11649;48.090;9.754;2023-07-20T10:50:22;22.90;53.70
22966;DHT22;11649;48.090;9.754;2023-07-20T10:55:29;23.30;53.20
22966;DHT22;11649;48.090;9.754;2023-07-20T10:58:13;23.30;54.60
22966;DHT22;11649;48.090;9.754;2023-07-20T11:01:00;23.20;56.00
22966;DHT22;11649;48.090;9.754;2023-07-20T11:03:34;23.30;50.20
22966;DHT22;11649;48.090;9.754;2023-07-20T11:08:56;23.10;50.80
22966;DHT22;11649;48.090;9.754;2023-07-20T11:11:27;23.10;53.30
22966;DHT22;11649;48.090;9.754;2023-07-20T11:14:05;23.30;53.90
22966;DHT22;11649;48.090;9.754;2023-07-20T11:16:43;23.50;49.20
22966;DHT22;11649;48.090;9.754;2023-07-20T11:19:19;23.50;53.30
22966;DHT22;11649;48.090;9.754;2023-07-20T11:21:58;23.80;52.90
22966;DHT22;11649;48.090;9.754;2023-07-20T11:24:31;24.00;53.60
22966;DHT22;11649;48.090;9.754;2023-07-20T11:26:59;24.10;49.50
22966;DHT22;11649;48.090;9.754;2023-07-20T11:29:26;24.10;50.80
22966;DHT22;11649;48.090;9.754;2023-07-20T11:31:59;24.10;51.20
22966;DHT22;11649;48.090;9.754;2023-07-20T11:34:26;23.90;50.00
22966;DHT22;11649;48.090;9.754;2023-07-20T11:36:54;24.00;51.40
22966;DHT22;11649;48.090;9.754;2023-07-20T11:39:24;24.10;50.30
22966;DHT22;11649;48.090;9.754;2023-07-20T11:41:54;24.20;46.70
22966;DHT22;11649;48.090;9.754;2023-07-20T11:44:23;24.20;47.60
22966;DHT22;11649;48.090;9.754;2023-07-20T11:47:08;24.30;48.50
22966;DHT22;11649;48.090;9.754;2023-07-20T11:49:40;24.70;46.90
22966;DHT22;11649;48.090;9.754;2023-07-20T11:52:11;24.90;46.60
22966;DHT22;11649;48.090;9.754;2023-07-20T11:54:41;25.00;45.30
22966;DHT22;11649;48.090;9.754;2023-07-20T11:57:17;25.10;49.10
22966;DHT22;11649;48.090;9.754;2023-07-20T11:59:55;25.40;45.30
22966;DHT22;11649;48.090;9.754;2023-07-20T12:02:29;25.60;45.70
22966;DHT22;11649;48.090;9.754;2023-07-20T12:04:57;25.60;44.00
22966;DHT22;11649;48.090;9.754;2023-07-20T12:07:26;25.40;44.50
22966;DHT22;11649;48.090;9.754;2023-07-20T12:12:32;25.00;44.80
22966;DHT22;11649;48.090;9.754;2023-07-20T12:17:53;25.10;45.20
22966;DHT22;11649;48.090;9.754;2023-07-20T12:23:11;25.10;43.80
22966;DHT22;11649;48.090;9.754;2023-07-20T12:25:39;24.80;45.10
22966;DHT22;11649;48.090;9.754;2023-07-20T12:28:24;24.70;47.30
22966;DHT22;11649;48.090;9.754;2023-07-20T12:30:52;25.00;46.20
22966;DHT22;11649;48.090;9.754;2023-07-20T12:33:23;25.10;44.60
22966;DHT22;11649;48.090;9.754;2023-07-20T12:35:50;25.00;42.00
22966;DHT22;11649;48.090;9.754;2023-07-20T12:38:17;24.90;43.80
22966;DHT22;11649;48.090;9.754;2023-07-20T12:40:44;25.00;42.40
22966;DHT22;11649;48.090;9.754;2023-07-20T12:43:11;25.00;45.10
22966;DHT22;11649;48.090;9.754;2023-07-20T12:45:38;25.40;41.80
22966;DHT22;11649;48.090;9.754;2023-07-20T12:48:05;25.60;44.60
22966;DHT22;11649;48.090;9.754;2023-07-20T12:50:31;25.90;44.30
22966;DHT22;11649;48.090;9.754;2023-07-20T12:52:58;26.10;43.50
22966;DHT22;11649;48.090;9.754;2023-07-20T12:55:25;26.20;45.30
22966;DHT22;11649;48.090;9.754;2023-07-20T12:57:52;26.50;40.00
22966;DHT22;11649;48.090;9.754;2023-07-20T13:00:19;25.90;40.60
22966;DHT22;11649;48.090;9.754;2023-07-20T13:02:46;26.20;38.30
22966;DHT22;11649;48.090;9.754;2023-07-20T13:05:13;25.80;39.50
22966;DHT22;11649;48.090;9.754;2023-07-20T13:07:41;25.40;43.70
22966;DHT22;11649;48.090;9.754;2023-07-20T13:10:11;25.90;39.50
22966;DHT22;11649;48.090;9.754;2023-07-20T13:12:38;26.50;39.10
22966;DHT22;11649;48.090;9.754;2023-07-20T13:15:07;27.10;40.50
22966;DHT22;11649;48.090;9.754;2023-07-20T13:17:35;27.30;40.20
22966;DHT22;11649;48.090;9.754;2023-07-20T13:20:03;27.60;39.00
22966;DHT22;11649;48.090;9.754;2023-07-20T13:22:34;27.80;38.80
22966;DHT22;11649;48.090;9.754;2023-07-20T13:25:02;28.40;37.40
22966;DHT22;11649;48.090;9.754;2023-07-20T13:27:29;28.30;38.40
22966;DHT22;11649;48.090;9.754;2023-07-20T13:29:59;28.60;35.20
22966;DHT22;11649;48.090;9.754;2023-07-20T13:32:31;28.70;35.20
22966;DHT22;11649;48.090;9.754;2023-07-20T13:35:00;29.40;33.50
22966;DHT22;11649;48.090;9.754;2023-07-20T13:37:28;29.00;34.30
22966;DHT22;11649;48.090;9.754;2023-07-20T13:39:55;28.40;36.00
22966;DHT22;11649;48.090;9.754;2023-07-20T13:42:23;28.40;35.70
22966;DHT22;11649;48.090;9.754;2023-07-20T13:44:50;28.00;35.70
22966;DHT22;11649;48.090;9.754;2023-07-20T13:47:16;27.50;38.30
22966;DHT22;11649;48.090;9.754;2023-07-20T13:49:48;28.60;39.10
22966;DHT22;11649;48.090;9.754;2023-07-20T13:52:28;30.50;35.60
22966;DHT22;11649;48.090;9.754;2023-07-20T13:54:58;31.20;34.80
22966;DHT22;11649;48.090;9.754;2023-07-20T13:57:25;32.50;35.50
22966;DHT22;11649;48.090;9.754;2023-07-20T13:59:53;33.80;29.50
22966;DHT22;11649;48.090;9.754;2023-07-20T14:02:20;34.80;28.60
22966;DHT22;11649;48.090;9.754;2023-07-20T14:04:49;34.70;27.70
22966;DHT22;11649;48.090;9.754;2023-07-20T14:07:36;33.60;28.10
22966;DHT22;11649;48.090;9.754;2023-07-20T14:10:04;33.10;30.10
22966;DHT22;11649;48.090;9.754;2023-07-20T14:12:34;33.70;28.50
22966;DHT22;11649;48.090;9.754;2023-07-20T14:15:01;34.40;28.00
22966;DHT22;11649;48.090;9.754;2023-07-20T14:17:29;34.20;27.70
22966;DHT22;11649;48.090;9.754;2023-07-20T14:19:55;33.00;27.20
22966;DHT22;11649;48.090;9.754;2023-07-20T14:22:22;31.90;28.60
22966;DHT22;11649;48.090;9.754;2023-07-20T14:24:52;31.00;29.00
22966;DHT22;11649;48.090;9.754;2023-07-20T14:27:19;29.90;30.70
22966;DHT22;11649;48.090;9.754;2023-07-20T14:29:46;29.20;33.40
22966;DHT22;11649;48.090;9.754;2023-07-20T14:32:13;28.60;33.60
22966;DHT22;11649;48.090;9.754;2023-07-20T14:34:39;28.10;38.30
22966;DHT22;11649;48.090;9.754;2023-07-20T14:37:07;28.10;38.50
22966;DHT22;11649;48.090;9.754;2023-07-20T14:39:34;28.70;37.10
22966;DHT22;11649;48.090;9.754;2023-07-20T14:42:01;28.80;37.00
22966;DHT22;11649;48.090;9.754;2023-07-20T14:44:30;29.00;35.60
22966;DHT22;11649;48.090;9.754;2023-07-20T14:46:57;30.40;33.70
22966;DHT22;11649;48.090;9.754;2023-07-20T14:49:40;31.20;31.60
22966;DHT22;11649;48.090;9.754;2023-07-20T14:52:06;30.90;31.10
22966;DHT22;11649;48.090;9.754;2023-07-20T14:54:36;30.80;31.90
22966;DHT22;11649;48.090;9.754;2023-07-20T14:57:03;30.10;34.20
22966;DHT22;11649;48.090;9.754;2023-07-20T14:59:31;29.70;33.00
22966;DHT22;11649;48.090;9.754;2023-07-20T15:01:58;29.40;34.30
22966;DHT22;11649;48.090;9.754;2023-07-20T15:04:24;29.00;33.50
22966;DHT22;11649;48.090;9.754;2023-07-20T15:06:54;28.20;34.80
22966;DHT22;11649;48.090;9.754;2023-07-20T15:09:21;27.30;36.30
22966;DHT22;11649;48.090;9.754;2023-07-20T15:11:48;26.90;38.50
22966;DHT22;11649;48.090;9.754;2023-07-20T15:14:15;26.50;40.40
22966;DHT22;11649;48.090;9.754;2023-07-20T15:16:42;26.20;41.20
22966;DHT22;11649;48.090;9.754;2023-07-20T15:19:09;27.70;38.20
22966;DHT22;11649;48.090;9.754;2023-07-20T15:21:35;28.40;37.70
22966;DHT22;11649;48.090;9.754;2023-07-20T15:24:02;28.50;34.90
22966;DHT22;11649;48.090;9.754;2023-07-20T15:26:29;28.60;37.60
22966;DHT22;11649;48.090;9.754;2023-07-20T15:28:58;29.10;37.50
22966;DHT22;11649;48.090;9.754;2023-07-20T15:31:24;29.90;35.80
22966;DHT22;11649;48.090;9.754;2023-07-20T15:33:55;30.90;32.90
22966;DHT22;11649;48.090;9.754;2023-07-20T15:36:22;31.30;33.10
22966;DHT22;11649;48.090;9.754;2023-07-20T15:38:49;32.10;33.00
22966;DHT22;11649;48.090;9.754;2023-07-20T15:41:16;32.80;29.50
22966;DHT22;11649;48.090;9.754;2023-07-20T15:43:43;32.10;29.80
22966;DHT22;11649;48.090;9.754;2023-07-20T15:48:47;31.60;33.20
22966;DHT22;11649;48.090;9.754;2023-07-20T15:51:14;31.80;32.00
22966;DHT22;11649;48.090;9.754;2023-07-20T15:53:41;32.00;31.60
22966;DHT22;11649;48.090;9.754;2023-07-20T15:56:07;31.30;30.80
22966;DHT22;11649;48.090;9.754;2023-07-20T15:58:34;30.70;33.10
22966;DHT22;11649;48.090;9.754;2023-07-20T16:01:01;31.00;32.50
22966;DHT22;11649;48.090;9.754;2023-07-20T16:03:28;31.20;31.60
22966;DHT22;11649;48.090;9.754;2023-07-20T16:06:04;31.10;33.00
22966;DHT22;11649;48.090;9.754;2023-07-20T16:08:31;31.00;30.70
22966;DHT22;11649;48.090;9.754;2023-07-20T16:10:58;31.00;30.10
22966;DHT22;11649;48.090;9.754;2023-07-20T16:13:26;30.70;31.20